Time;durP1;ratioP1;P1;durP2;ratioP2;P2;SDS_P1;SDS_P2;PMS_P1;PMS_P2;Temp;Humidity;BMP_temperature;BMP_pressure;BME280_temperature;BME280_humidity;BME280_pressure;Samples;Min_cycle;Max_cycle;Signal;HPM_P1;HPM_P2
2023/12/04 00:00:46;;;;;;;1.43;1.27;;;;;;;5.68;100.00;99829.31;5072692;28;20200;-67
2023/12/04 00:03:13;;;;;;;0.80;0.80;;;;;;;5.68;100.00;99821.69;5071507;28;20192;-66
2023/12/04 00:05:42;;;;;;;0.70;0.70;;;;;;;5.69;100.00;99822.50;5072670;28;21320;-67
2023/12/04 00:08:10;;;;;;;0.80;0.80;;;;;;;5.66;100.00;99813.19;5072639;28;20637;-66
2023/12/04 00:10:37;;;;;;;0.97;0.97;;;;;;;5.61;100.00;99824.25;5074433;28;20287;-67
2023/12/04 00:13:03;;;;;;;0.70;0.70;;;;;;;5.61;100.00;99816.63;5072803;28;20211;-67
2023/12/04 00:15:31;;;;;;;0.97;0.97;;;;;;;5.58;100.00;99814.09;5072057;28;20262;-66
2023/12/04 00:17:58;;;;;;;5.40;1.37;;;;;;;5.59;100.00;99823.41;5072754;28;20237;-66
2023/12/04 00:20:25;;;;;;;1.90;1.30;;;;;;;5.54;100.00;99822.56;5072606;28;20196;-66
2023/12/04 00:22:51;;;;;;;1.50;1.50;;;;;;;5.52;100.00;99837.00;5072958;28;20660;-67
2023/12/04 00:25:18;;;;;;;1.33;0.93;;;;;;;5.53;100.00;99843.75;5073547;28;20638;-66
2023/12/04 00:27:45;;;;;;;1.80;1.53;;;;;;;5.47;100.00;99851.41;5073344;28;20203;-68
2023/12/04 00:30:12;;;;;;;0.60;0.60;;;;;;;5.42;100.00;99853.13;5072524;28;20200;-66
2023/12/04 00:32:40;;;;;;;1.30;1.30;;;;;;;5.38;100.00;99853.97;5071692;28;20211;-66
2023/12/04 00:35:07;;;;;;;1.37;1.37;;;;;;;5.23;100.00;99848.06;5072089;28;20737;-66
2023/12/04 00:37:37;;;;;;;1.00;1.00;;;;;;;5.26;100.00;99865.88;5072293;28;20250;-67
2023/12/04 00:40:04;;;;;;;0.80;0.80;;;;;;;5.22;100.00;99876.88;5072470;28;20278;-67
2023/12/04 00:42:31;;;;;;;0.87;0.87;;;;;;;5.21;100.00;99884.50;5071777;28;20664;-67
2023/12/04 00:44:58;;;;;;;0.50;0.50;;;;;;;5.15;100.00;99887.91;5072092;28;20196;-66
2023/12/04 00:47:25;;;;;;;0.40;0.40;;;;;;;5.20;100.00;99877.75;5071925;28;20192;-67
2023/12/04 00:49:53;;;;;;;1.00;1.00;;;;;;;5.17;100.00;99886.19;5071944;28;20203;-66
2023/12/04 00:52:19;;;;;;;0.53;0.53;;;;;;;5.15;100.00;99882.81;5071980;28;20269;-67
2023/12/04 00:54:46;;;;;;;0.80;0.80;;;;;;;5.19;100.00;99881.13;5071458;28;20241;-65
2023/12/04 00:57:13;;;;;;;0.60;0.60;;;;;;;5.16;100.00;99892.13;5071635;28;20277;-66
2023/12/04 00:59:40;;;;;;;0.67;0.67;;;;;;;5.17;100.00;99891.28;5073429;28;20672;-67
2023/12/04 01:02:08;;;;;;;0.57;0.57;;;;;;;5.13;100.00;99893.84;5073119;28;20187;-67
2023/12/04 01:04:35;;;;;;;0.70;0.70;;;;;;;5.08;100.00;99888.75;5071898;28;20722;-66
2023/12/04 01:07:03;;;;;;;0.70;0.70;;;;;;;5.10;100.00;99897.22;5071803;28;20196;-67
2023/12/04 01:09:30;;;;;;;0.60;0.60;;;;;;;5.15;100.00;99904.84;5071842;28;20208;-67
2023/12/04 01:11:57;;;;;;;1.23;1.13;;;;;;;5.11;100.00;99908.22;5068622;28;20261;-67
2023/12/04 01:14:23;;;;;;;0.50;0.50;;;;;;;5.07;100.00;99902.28;5070937;28;20199;-67
2023/12/04 01:16:50;;;;;;;0.70;0.70;;;;;;;5.05;100.00;99898.91;5071283;28;20204;-67
2023/12/04 01:19:17;;;;;;;1.50;0.90;;;;;;;4.99;100.00;99898.91;5071358;28;20200;-67
2023/12/04 01:21:44;;;;;;;0.80;0.80;;;;;;;4.97;100.00;99889.59;5071597;28;20622;-67
2023/12/04 01:24:12;;;;;;;1.07;0.70;;;;;;;4.96;100.00;99890.44;5071191;28;20200;-66
2023/12/04 01:26:39;;;;;;;0.60;0.60;;;;;;;4.94;100.00;99900.63;5071642;28;20623;-67
2023/12/04 01:29:06;;;;;;;0.50;0.50;;;;;;;4.94;100.00;99898.06;5071241;28;20196;-68
2023/12/04 01:31:32;;;;;;;0.40;0.40;;;;;;;4.93;100.00;99913.31;5070192;28;20265;-67
2023/12/04 01:33:59;;;;;;;0.73;0.73;;;;;;;4.78;100.00;99888.75;5072615;28;20254;-67
2023/12/04 01:36:26;;;;;;;0.70;0.70;;;;;;;4.69;100.00;99876.03;5070026;28;20196;-67
2023/12/04 01:38:52;;;;;;;0.73;0.73;;;;;;;4.80;100.00;99896.34;5070718;28;20242;-67
2023/12/04 01:41:21;;;;;;;1.00;1.00;;;;;;;4.80;100.00;99902.28;5073902;28;20196;-66
2023/12/04 01:43:47;;;;;;;0.50;0.50;;;;;;;4.76;100.00;99903.13;5070608;28;20196;-67
2023/12/04 01:46:16;;;;;;;0.60;0.60;;;;;;;4.72;100.00;99901.41;5071891;28;20196;-67
2023/12/04 01:48:45;;;;;;;1.17;1.17;;;;;;;4.68;100.00;99907.34;5070625;28;20196;-66
2023/12/04 01:51:14;;;;;;;0.47;0.47;;;;;;;4.67;100.00;99916.66;5070905;28;20204;-67
2023/12/04 01:53:42;;;;;;;0.40;0.40;;;;;;;4.68;100.00;99922.59;5070724;28;20266;-67
2023/12/04 01:56:10;;;;;;;1.07;1.07;;;;;;;4.69;100.00;99921.72;5066920;28;20297;-67
2023/12/04 01:58:38;;;;;;;0.60;0.60;;;;;;;4.70;100.00;99918.34;5070699;28;20285;-67
2023/12/04 02:01:06;;;;;;;0.87;0.87;;;;;;;4.61;100.00;99903.09;5070679;28;20199;-67
2023/12/04 02:03:34;;;;;;;0.60;0.60;;;;;;;4.65;100.00;99917.50;5070812;28;20667;-66
2023/12/04 02:06:02;;;;;;;0.97;0.97;;;;;;;4.63;100.00;99926.81;5069665;28;20265;-67
2023/12/04 02:08:29;;;;;;;1.00;1.00;;;;;;;4.64;100.00;99925.97;5070850;28;20282;-67
2023/12/04 02:10:56;;;;;;;0.97;0.97;;;;;;;4.63;100.00;99930.19;5067809;28;20587;-67
2023/12/04 02:13:23;;;;;;;1.80;1.03;;;;;;;4.66;100.00;99936.97;5071627;28;20223;-67
2023/12/04 02:15:54;;;;;;;0.40;0.40;;;;;;;4.62;100.00;99932.75;5069798;28;20257;-67
2023/12/04 02:18:22;;;;;;;0.50;0.50;;;;;;;4.65;100.00;99932.75;5066920;28;20254;-67
2023/12/04 02:20:48;;;;;;;0.90;0.90;;;;;;;4.68;100.00;99937.84;5070130;28;20200;-67
2023/12/04 02:23:15;;;;;;;1.37;1.33;;;;;;;4.65;100.00;99941.19;5070542;28;20193;-67
2023/12/04 02:25:43;;;;;;;0.97;0.97;;;;;;;4.60;100.00;99952.19;5070606;28;20660;-66
2023/12/04 02:28:13;;;;;;;0.87;0.87;;;;;;;4.64;100.00;99946.28;5070786;28;20204;-67
2023/12/04 02:30:44;;;;;;;0.80;0.80;;;;;;;4.59;100.00;99956.41;5070303;28;20269;-67
2023/12/04 02:33:12;;;;;;;0.70;0.70;;;;;;;4.52;100.00;99946.25;5070329;28;20216;-68
2023/12/04 02:35:41;;;;;;;0.50;0.50;;;;;;;4.61;100.00;99962.38;5070642;28;20249;-67
2023/12/04 02:38:08;;;;;;;0.60;0.60;;;;;;;4.57;100.00;99969.97;5069752;28;20919;-67
2023/12/04 02:40:35;;;;;;;0.60;0.60;;;;;;;4.56;100.00;99970.78;5070650;28;20245;-67
2023/12/04 02:43:03;;;;;;;1.27;1.23;;;;;;;4.48;100.00;99954.69;5069003;28;20196;-67
2023/12/04 02:45:30;;;;;;;0.63;0.63;;;;;;;4.56;100.00;99976.72;5070545;28;20261;-67
2023/12/04 02:47:57;;;;;;;0.70;0.70;;;;;;;4.49;100.00;99969.09;5069742;28;20200;-66
2023/12/04 02:50:23;;;;;;;0.50;0.50;;;;;;;4.47;100.00;99966.53;5070598;28;20721;-67
2023/12/04 02:52:50;;;;;;;0.70;0.70;;;;;;;4.47;100.00;99968.22;5070312;28;20269;-67
2023/12/04 02:55:17;;;;;;;0.50;0.50;;;;;;;4.53;100.00;99975.84;5070247;28;20196;-67
2023/12/04 02:57:44;;;;;;;1.10;1.10;;;;;;;4.53;100.00;99973.31;5070454;28;20589;-67
2023/12/04 03:00:13;;;;;;;0.50;0.50;;;;;;;4.51;100.00;99973.31;5069986;28;20250;-67
2023/12/04 03:02:40;;;;;;;0.53;0.53;;;;;;;4.50;100.00;99973.31;5069821;28;20188;-67
2023/12/04 03:05:07;;;;;;;0.77;0.77;;;;;;;4.39;100.00;99954.69;5070247;28;21069;-66
2023/12/04 03:07:33;;;;;;;0.73;0.73;;;;;;;4.42;100.00;99975.00;5070123;28;20258;-67
2023/12/04 03:10:00;;;;;;;0.63;0.63;;;;;;;4.33;100.00;99980.03;5070312;28;20192;-67
2023/12/04 03:12:27;;;;;;;0.60;0.60;;;;;;;4.37;100.00;99986.78;5067718;28;20224;-67
2023/12/04 03:14:53;;;;;;;0.80;0.80;;;;;;;4.31;100.00;99991.84;5070173;28;20204;-67
2023/12/04 03:17:22;;;;;;;0.40;0.40;;;;;;;4.18;100.00;99981.66;5071828;28;20253;-67
2023/12/04 03:19:48;;;;;;;0.80;0.80;;;;;;;4.21;100.00;100007.03;5074724;28;20201;-67
2023/12/04 03:22:15;;;;;;;0.80;0.80;;;;;;;4.17;100.00;100004.47;5076750;28;20196;-66
2023/12/04 03:24:42;;;;;;;0.83;0.83;;;;;;;4.18;100.00;100007.03;5074141;28;20628;-67
2023/12/04 03:27:08;;;;;;;1.00;1.00;;;;;;;4.05;100.00;100002.72;5073859;28;20195;-67
2023/12/04 03:29:35;;;;;;;0.60;0.60;;;;;;;4.15;100.00;100019.69;5073506;28;20250;-67
2023/12/04 03:32:02;;;;;;;0.83;0.83;;;;;;;4.11;100.00;100027.28;5073147;28;20565;-67
2023/12/04 03:34:30;;;;;;;0.70;0.70;;;;;;;4.15;100.00;100026.47;5073488;28;20215;-67
2023/12/04 03:36:56;;;;;;;0.47;0.47;;;;;;;4.14;100.00;100035.75;5073924;28;20614;-67
2023/12/04 03:39:23;;;;;;;0.57;0.57;;;;;;;4.02;100.00;100017.94;5073798;28;20196;-66
2023/12/04 03:41:50;;;;;;;0.60;0.60;;;;;;;4.13;100.00;100036.63;5072947;28;20253;-67
2023/12/04 03:44:16;;;;;;;0.60;0.60;;;;;;;4.14;100.00;100029.81;5072966;28;20664;-67
2023/12/04 03:46:43;;;;;;;1.10;1.00;;;;;;;4.04;100.00;100020.50;5072836;28;20192;-66
2023/12/04 03:49:10;;;;;;;1.13;1.13;;;;;;;4.15;100.00;100037.47;5073360;28;20626;-67
2023/12/04 03:51:38;;;;;;;0.50;0.50;;;;;;;4.10;100.00;100031.50;5072385;28;20200;-67
2023/12/04 03:54:05;;;;;;;0.63;0.63;;;;;;;4.12;100.00;100041.66;5073484;28;20286;-66
2023/12/04 03:56:31;;;;;;;0.70;0.70;;;;;;;3.99;100.00;100025.53;5072994;28;20629;-68
2023/12/04 03:58:58;;;;;;;0.87;0.87;;;;;;;4.02;100.00;100045.84;5073011;28;20269;-66
2023/12/04 04:01:25;;;;;;;0.60;0.60;;;;;;;4.04;100.00;100049.22;5072979;28;20257;-66
2023/12/04 04:03:51;;;;;;;0.90;0.90;;;;;;;3.94;100.00;100037.31;5072951;28;20199;-67
2023/12/04 04:06:18;;;;;;;0.57;0.57;;;;;;;3.98;100.00;100055.94;5073095;28;20282;-67
2023/12/04 04:08:46;;;;;;;1.40;1.40;;;;;;;4.00;100.00;100056.81;5072663;28;20192;-67
2023/12/04 04:11:13;;;;;;;0.50;0.50;;;;;;;4.00;100.00;100062.75;5072498;28;20258;-67
2023/12/04 04:13:40;;;;;;;0.50;0.50;;;;;;;3.93;100.00;100048.31;5071963;28;20220;-67
2023/12/04 04:16:07;;;;;;;1.03;1.03;;;;;;;3.90;100.00;100052.53;5072506;28;20646;-66
2023/12/04 04:18:34;;;;;;;0.50;0.50;;;;;;;3.91;100.00;100049.16;5072195;28;20208;-65
2023/12/04 04:21:02;;;;;;;0.80;0.80;;;;;;;3.89;100.00;100059.28;5072736;28;20672;-67
2023/12/04 04:23:28;;;;;;;0.60;0.60;;;;;;;3.89;100.00;100064.34;5072521;28;20192;-67
2023/12/04 04:25:56;;;;;;;0.53;0.53;;;;;;;3.85;100.00;100062.63;5072614;28;20649;-67
2023/12/04 04:28:23;;;;;;;0.93;0.93;;;;;;;3.83;100.00;100069.38;5072006;28;20200;-67
2023/12/04 04:30:50;;;;;;;0.67;0.67;;;;;;;3.81;100.00;100075.28;5072385;28;20211;-67
2023/12/04 04:33:17;;;;;;;1.23;1.23;;;;;;;3.77;100.00;100078.63;5072283;28;20219;-66
2023/12/04 04:35:45;;;;;;;0.50;0.50;;;;;;;3.78;100.00;100086.22;5072440;28;20668;-67
2023/12/04 04:38:11;;;;;;;0.77;0.77;;;;;;;3.70;100.00;100087.88;5072314;28;20249;-66
2023/12/04 04:40:41;;;;;;;0.80;0.80;;;;;;;3.77;100.00;100094.69;5072210;28;20196;-67
2023/12/04 04:43:11;;;;;;;0.50;0.50;;;;;;;3.77;100.00;100089.63;5072034;28;20188;-66
2023/12/04 04:45:37;;;;;;;0.80;0.80;;;;;;;3.76;100.00;100098.06;5071716;28;20196;-67
2023/12/04 04:48:04;;;;;;;0.63;0.63;;;;;;;3.72;100.00;100106.47;5072137;28;20342;-65
2023/12/04 04:50:31;;;;;;;1.17;1.17;;;;;;;3.74;100.00;100109.88;5073759;28;20230;-67
2023/12/04 04:52:58;;;;;;;0.73;0.73;;;;;;;3.79;100.00;100118.38;5071793;28;20755;-67
2023/12/04 04:55:24;;;;;;;0.70;0.70;;;;;;;3.70;100.00;100114.06;5071033;28;20266;-66
2023/12/04 04:57:51;;;;;;;1.00;1.00;;;;;;;3.64;100.00;100113.16;5071504;28;20223;-67
2023/12/04 05:00:20;;;;;;;0.50;0.50;;;;;;;3.70;100.00;100115.75;5070697;28;20257;-66
2023/12/04 05:02:46;;;;;;;0.90;0.90;;;;;;;3.67;100.00;100128.41;5071795;28;20192;-67
2023/12/04 05:05:13;;;;;;;1.00;1.00;;;;;;;3.68;100.00;100132.66;5071739;28;20658;-66
2023/12/04 05:07:40;;;;;;;0.50;0.50;;;;;;;3.69;100.00;100132.66;5073008;28;20192;-67
2023/12/04 05:10:07;;;;;;;0.53;0.53;;;;;;;3.60;100.00;100126.66;5071259;28;20196;-67
2023/12/04 05:12:34;;;;;;;0.60;0.60;;;;;;;3.66;100.00;100141.91;5069985;28;20257;-67
2023/12/04 05:15:01;;;;;;;0.60;0.60;;;;;;;3.62;100.00;100150.31;5071360;28;20265;-67
2023/12/04 05:17:29;;;;;;;1.37;1.37;;;;;;;3.57;100.00;100147.75;5067724;28;20204;-67
2023/12/04 05:19:55;;;;;;;0.60;0.60;;;;;;;3.57;99.98;100152.81;5071536;28;20203;-66
2023/12/04 05:22:22;;;;;;;1.47;1.47;;;;;;;3.53;99.91;100155.28;5071524;28;20254;-66
2023/12/04 05:24:49;;;;;;;1.20;1.10;;;;;;;3.47;100.00;100152.69;5071565;28;20188;-67
2023/12/04 05:27:16;;;;;;;0.93;0.93;;;;;;;3.43;100.00;100163.63;5071275;28;20192;-66
2023/12/04 05:29:42;;;;;;;0.97;0.97;;;;;;;3.47;100.00;100166.22;5071718;28;20253;-67
2023/12/04 05:32:09;;;;;;;0.93;0.93;;;;;;;3.45;100.00;100170.44;5071107;28;20664;-67
2023/12/04 05:34:37;;;;;;;1.50;0.97;;;;;;;3.44;100.00;100181.41;5075782;28;20237;-66
2023/12/04 05:37:04;;;;;;;0.60;0.60;;;;;;;3.45;100.00;100179.72;5071325;28;20745;-67
2023/12/04 05:39:30;;;;;;;0.90;0.90;;;;;;;3.43;100.00;100191.50;5070991;28;20622;-67
2023/12/04 05:41:57;;;;;;;0.90;0.90;;;;;;;3.44;100.00;100191.53;5070052;28;20240;-67
2023/12/04 05:44:24;;;;;;;0.80;0.80;;;;;;;3.51;99.58;100197.53;5070969;28;20672;-67
2023/12/04 05:46:50;;;;;;;1.80;1.70;;;;;;;3.41;98.84;100176.31;5071968;28;20207;-67
2023/12/04 05:49:17;;;;;;;0.90;0.90;;;;;;;3.50;97.77;100190.75;5070921;28;20195;-67
2023/12/04 05:51:45;;;;;;;0.63;0.63;;;;;;;3.47;97.91;100195.78;5070831;28;20204;-66
2023/12/04 05:54:12;;;;;;;1.50;0.97;;;;;;;3.43;96.94;100205.03;5071586;28;20785;-67
2023/12/04 05:56:39;;;;;;;1.27;1.27;;;;;;;3.45;96.36;100217.75;5070460;28;20269;-66
2023/12/04 05:59:05;;;;;;;0.50;0.50;;;;;;;3.41;95.46;100206.72;5070127;28;20703;-67
2023/12/04 06:01:32;;;;;;;1.40;1.40;;;;;;;3.41;94.52;100221.06;5072954;28;20203;-67
2023/12/04 06:03:59;;;;;;;0.83;0.83;;;;;;;3.41;94.72;100224.47;5072197;28;20196;-67
2023/12/04 06:06:26;;;;;;;0.77;0.77;;;;;;;3.40;93.72;100229.50;5070849;28;20196;-66
2023/12/04 06:08:55;;;;;;;0.50;0.50;;;;;;;3.39;92.67;100226.13;5070564;28;20614;-66
2023/12/04 06:11:22;;;;;;;0.40;0.40;;;;;;;3.38;94.35;100226.97;5071062;28;20265;-67
2023/12/04 06:13:49;;;;;;;0.57;0.57;;;;;;;3.40;93.47;100234.56;5066518;28;20551;-66
2023/12/04 06:16:15;;;;;;;0.70;0.70;;;;;;;3.40;93.79;100229.50;5070123;28;20204;-67
2023/12/04 06:18:42;;;;;;;0.93;0.93;;;;;;;3.40;93.42;100229.50;5069732;28;20208;-67
2023/12/04 06:21:09;;;;;;;0.73;0.73;;;;;;;3.42;93.36;100227.84;5070352;28;20253;-64
2023/12/04 06:23:36;;;;;;;0.60;0.60;;;;;;;3.41;94.22;100231.22;5069317;28;20196;-66
2023/12/04 06:26:06;;;;;;;0.60;0.60;;;;;;;3.43;93.47;100235.47;5065599;28;20201;-65
2023/12/04 06:28:33;;;;;;;0.83;0.83;;;;;;;3.46;93.56;100239.69;5070181;28;20672;-65
2023/12/04 06:31:01;;;;;;;0.50;0.50;;;;;;;3.46;93.39;100249.84;5070273;28;20269;-65
2023/12/04 06:33:28;;;;;;;0.60;0.60;;;;;;;3.46;93.01;100237.16;5070043;28;20219;-66
2023/12/04 06:35:56;;;;;;;1.23;1.23;;;;;;;3.48;92.59;100249.06;5070001;28;20199;-66
2023/12/04 06:38:25;;;;;;;0.50;0.50;;;;;;;3.52;94.24;100255.00;5069929;28;20204;-65
2023/12/04 06:40:53;;;;;;;0.53;0.53;;;;;;;3.49;93.86;100252.44;5070065;28;20208;-65
2023/12/04 06:43:22;;;;;;;0.60;0.60;;;;;;;3.48;93.47;100249.06;5069016;28;20264;-65
2023/12/04 06:45:49;;;;;;;0.67;0.67;;;;;;;3.50;94.10;100261.72;5069216;28;20236;-64
2023/12/04 06:48:17;;;;;;;0.57;0.57;;;;;;;3.52;95.09;100255.84;5069636;28;20258;-65
2023/12/04 06:50:44;;;;;;;0.57;0.57;;;;;;;3.61;94.00;100263.56;5067392;28;20233;-66
2023/12/04 06:53:11;;;;;;;1.00;1.00;;;;;;;3.61;94.54;100266.09;5070337;28;20733;-64
2023/12/04 06:55:37;;;;;;;1.03;1.03;;;;;;;3.59;93.73;100266.91;5071310;28;20269;-65
2023/12/04 06:58:04;;;;;;;0.90;0.90;;;;;;;3.62;93.94;100262.72;5074250;28;20324;-65
2023/12/04 07:00:32;;;;;;;0.60;0.60;;;;;;;3.61;94.15;100260.19;5074161;28;20200;-67
2023/12/04 07:02:59;;;;;;;0.60;0.60;;;;;;;3.62;94.08;100274.53;5077044;28;20193;-67
2023/12/04 07:05:26;;;;;;;0.70;0.70;;;;;;;3.65;93.82;100269.53;5074539;28;20200;-68
2023/12/04 07:07:52;;;;;;;0.90;0.90;;;;;;;3.68;94.08;100277.19;5073986;28;20210;-66
2023/12/04 07:10:19;;;;;;;0.80;0.80;;;;;;;3.68;93.89;100282.25;5072422;28;20205;-66
2023/12/04 07:12:46;;;;;;;1.70;1.70;;;;;;;3.72;93.30;100273.00;5074055;28;20203;-66
2023/12/04 07:15:13;;;;;;;0.90;0.90;;;;;;;3.67;93.70;100276.31;5073598;28;20215;-66
2023/12/04 07:17:41;;;;;;;0.70;0.70;;;;;;;3.71;94.75;100277.22;5074504;28;20200;-65
2023/12/04 07:20:09;;;;;;;0.77;0.77;;;;;;;3.74;94.67;100272.16;5071870;28;20717;-66
2023/12/04 07:22:36;;;;;;;0.57;0.57;;;;;;;3.77;93.60;100287.41;5072877;28;20244;-65
2023/12/04 07:25:02;;;;;;;0.60;0.60;;;;;;;3.76;92.99;100285.69;5074550;28;20664;-65
2023/12/04 07:27:29;;;;;;;1.30;1.00;;;;;;;3.75;93.61;100278.91;5074120;28;20203;-65
2023/12/04 07:29:56;;;;;;;1.00;1.00;;;;;;;3.85;93.44;100285.81;5073569;28;20253;-65
2023/12/04 07:32:22;;;;;;;0.50;0.50;;;;;;;3.83;93.45;100287.47;5073831;28;20200;-65
2023/12/04 07:34:51;;;;;;;0.60;0.60;;;;;;;3.59;93.92;100247.47;5073538;28;20625;-65
2023/12/04 07:37:17;;;;;;;0.57;0.57;;;;;;;3.88;93.66;100279.94;5073668;28;20199;-66
2023/12/04 07:39:45;;;;;;;0.90;0.90;;;;;;;3.92;94.80;100281.66;5073842;28;20653;-66
2023/12/04 07:42:12;;;;;;;0.50;0.50;;;;;;;3.92;94.56;100287.56;5073903;28;20196;-66
2023/12/04 07:44:39;;;;;;;0.50;0.50;;;;;;;3.95;95.04;100285.06;5073459;28;20262;-67
2023/12/04 07:47:06;;;;;;;0.50;0.50;;;;;;;4.04;95.60;100286.88;5072637;28;20668;-68
2023/12/04 07:49:32;;;;;;;0.77;0.77;;;;;;;4.10;95.96;100287.75;5073966;28;20664;-68
2023/12/04 07:52:00;;;;;;;0.80;0.80;;;;;;;4.17;94.72;100289.53;5072757;28;20250;-68
2023/12/04 07:54:27;;;;;;;0.87;0.87;;;;;;;4.27;93.94;100289.59;5073719;28;20348;-68
2023/12/04 07:56:54;;;;;;;0.83;0.83;;;;;;;4.36;94.86;100284.63;5072496;28;20269;-67
2023/12/04 07:59:20;;;;;;;0.60;0.60;;;;;;;4.41;92.64;100290.59;5072181;28;20200;-67
2023/12/04 08:01:47;;;;;;;0.53;0.53;;;;;;;4.46;93.72;100283.88;5072694;28;20196;-67
2023/12/04 08:04:14;;;;;;;1.30;1.30;;;;;;;4.58;93.14;100283.97;5071321;28;20250;-67
2023/12/04 08:06:41;;;;;;;1.70;1.07;;;;;;;4.58;91.94;100282.28;5071203;28;20262;-66
2023/12/04 08:09:10;;;;;;;0.60;0.60;;;;;;;4.57;91.12;100280.56;5072769;28;20200;-65
2023/12/04 08:11:37;;;;;;;0.80;0.80;;;;;;;4.69;90.08;100289.97;5072702;28;20346;-67
2023/12/04 08:14:04;;;;;;;0.40;0.40;;;;;;;4.71;89.68;100293.38;5072325;28;20219;-65
2023/12/04 08:16:31;;;;;;;1.10;1.10;;;;;;;4.73;89.99;100294.25;5072131;28;20204;-67
2023/12/04 08:18:58;;;;;;;0.73;0.73;;;;;;;4.82;90.86;100286.69;5072904;28;20706;-68
2023/12/04 08:21:24;;;;;;;0.70;0.70;;;;;;;4.84;90.09;100292.66;5072824;28;20208;-69
2023/12/04 08:23:53;;;;;;;0.57;0.57;;;;;;;4.93;89.88;100292.69;5070850;28;20253;-67
2023/12/04 08:26:24;;;;;;;0.80;0.80;;;;;;;4.96;89.16;100290.19;5070349;28;20603;-67
2023/12/04 08:28:50;;;;;;;0.57;0.57;;;;;;;4.72;88.79;100239.19;5072483;28;20599;-66
2023/12/04 08:31:17;;;;;;;0.87;0.87;;;;;;;5.04;88.35;100283.44;5070689;28;20203;-66
2023/12/04 08:33:44;;;;;;;3.30;0.90;;;;;;;5.06;88.63;100286.00;5071156;28;20298;-66
2023/12/04 08:36:12;;;;;;;0.40;0.40;;;;;;;5.04;88.01;100293.59;5071287;28;20236;-67
2023/12/04 08:38:40;;;;;;;0.70;0.70;;;;;;;5.09;89.21;100276.72;5071718;28;20210;-66
2023/12/04 08:41:07;;;;;;;0.97;0.97;;;;;;;5.17;90.30;100284.38;5069953;28;20914;-66
2023/12/04 08:43:35;;;;;;;0.73;0.73;;;;;;;5.23;88.87;100287.78;5069201;28;20257;-66
2023/12/04 08:46:02;;;;;;;0.60;0.60;;;;;;;5.26;89.58;100287.84;5071225;28;20193;-65
2023/12/04 08:48:29;;;;;;;1.27;1.17;;;;;;;5.28;89.86;100283.59;5070802;28;20207;-68
2023/12/04 08:50:56;;;;;;;0.70;0.70;;;;;;;5.42;89.24;100295.53;5070414;28;20300;-68
2023/12/04 08:53:23;;;;;;;1.27;1.13;;;;;;;5.60;90.15;100301.53;5071599;28;20199;-68
2023/12/04 08:55:51;;;;;;;0.60;0.60;;;;;;;5.69;89.66;100300.72;5068667;28;20654;-68
2023/12/04 08:58:18;;;;;;;0.60;0.60;;;;;;;5.69;88.41;100296.47;5070793;28;20285;-68
2023/12/04 09:00:46;;;;;;;2.90;1.50;;;;;;;5.77;88.52;100301.59;5070936;28;20257;-68
2023/12/04 09:03:13;;;;;;;1.17;0.87;;;;;;;5.83;88.67;100296.53;5071255;28;20196;-68
2023/12/04 09:05:40;;;;;;;1.30;1.00;;;;;;;5.98;88.95;100299.16;5071741;28;20196;-67
2023/12/04 09:08:07;;;;;;;1.43;1.40;;;;;;;6.04;89.76;100299.16;5070211;28;20250;-67
2023/12/04 09:10:34;;;;;;;1.33;1.23;;;;;;;6.20;89.62;100300.06;5070849;28;20564;-67
2023/12/04 09:13:00;;;;;;;0.90;0.90;;;;;;;6.23;87.92;100295.84;5071546;28;20196;-67
2023/12/04 09:15:27;;;;;;;2.07;1.93;;;;;;;6.29;87.59;100295.84;5069869;28;20715;-67
2023/12/04 09:17:56;;;;;;;0.60;0.60;;;;;;;6.26;87.63;100285.66;5071678;28;20674;-67
2023/12/04 09:20:23;;;;;;;1.00;1.00;;;;;;;6.32;88.91;100283.09;5071432;28;20208;-67
2023/12/04 09:22:50;;;;;;;1.73;1.63;;;;;;;6.39;87.90;100286.50;5069726;28;20196;-67
2023/12/04 09:25:17;;;;;;;1.90;1.50;;;;;;;6.44;89.05;100286.50;5071081;28;20277;-67
2023/12/04 09:27:44;;;;;;;0.70;0.70;;;;;;;6.50;88.99;100283.94;5071027;28;20249;-68
2023/12/04 09:30:11;;;;;;;0.93;0.93;;;;;;;6.59;88.72;100273.78;5071573;28;22041;-66
2023/12/04 09:32:38;;;;;;;1.40;1.27;;;;;;;6.65;89.80;100277.19;5069109;28;20196;-67
2023/12/04 09:35:07;;;;;;;1.87;1.87;;;;;;;6.76;89.42;100272.06;5072333;28;21011;-67
2023/12/04 09:37:34;;;;;;;2.13;1.43;;;;;;;6.83;89.43;100276.31;5065294;28;20622;-67
2023/12/04 09:40:01;;;;;;;1.40;1.40;;;;;;;6.88;87.26;100271.22;5068726;28;20261;-67
2023/12/04 09:42:28;;;;;;;1.00;1.00;;;;;;;6.93;85.71;100275.44;5069786;28;20261;-68
2023/12/04 09:44:56;;;;;;;0.57;0.57;;;;;;;6.97;85.91;100268.63;5069296;28;20656;-68
2023/12/04 09:47:24;;;;;;;1.53;1.43;;;;;;;7.08;87.50;100274.56;5070631;28;20208;-67
2023/12/04 09:49:52;;;;;;;1.70;1.57;;;;;;;7.12;89.10;100266.91;5068920;28;20200;-68
2023/12/04 09:52:21;;;;;;;1.40;1.23;;;;;;;7.22;88.50;100260.94;5070573;28;20237;-68
2023/12/04 09:54:48;;;;;;;1.57;1.57;;;;;;;7.29;87.34;100270.25;5069336;28;20299;-68
2023/12/04 09:57:15;;;;;;;1.63;1.60;;;;;;;7.39;87.99;100261.72;5069643;28;20239;-67
2023/12/04 09:59:45;;;;;;;0.77;0.77;;;;;;;7.45;87.35;100260.84;5069572;28;20230;-68
2023/12/04 10:02:12;;;;;;;1.10;1.10;;;;;;;7.53;86.66;100250.63;5069735;28;20204;-67
2023/12/04 10:04:39;;;;;;;1.73;1.00;;;;;;;7.59;86.34;100246.34;5067007;28;20196;-68
2023/12/04 10:07:06;;;;;;;0.73;0.73;;;;;;;7.59;86.07;100232.75;5068875;28;20200;-67
2023/12/04 10:09:34;;;;;;;1.40;1.40;;;;;;;7.74;86.49;100243.72;5069370;28;20638;-67
2023/12/04 10:12:01;;;;;;;1.00;1.00;;;;;;;7.79;86.18;100251.31;5068493;28;20250;-67
2023/12/04 10:14:28;;;;;;;1.50;1.40;;;;;;;7.88;86.59;100251.28;5069408;28;22429;-67
2023/12/04 10:16:54;;;;;;;0.57;0.57;;;;;;;7.95;87.15;100247.81;5068348;28;20200;-68
2023/12/04 10:19:25;;;;;;;2.03;1.93;;;;;;;7.96;87.14;100241.03;5069617;28;20337;-68
2023/12/04 10:21:53;;;;;;;1.47;1.47;;;;;;;7.96;88.67;100244.44;5068172;28;20641;-68
2023/12/04 10:24:30;;;;;;;1.40;1.30;;;;;;;8.07;88.55;100237.56;5068685;28;20212;-67
2023/12/04 10:26:59;;;;;;;1.73;1.30;;;;;;;8.13;87.60;100240.06;5071056;28;20266;-67
2023/12/04 10:29:31;;;;;;;1.50;1.30;;;;;;;8.07;88.03;100235.00;5076857;28;20264;-67
2023/12/04 10:32:00;;;;;;;1.80;1.27;;;;;;;8.06;88.18;100242.66;5074168;28;20235;-67
2023/12/04 10:34:27;;;;;;;0.87;0.87;;;;;;;7.97;87.65;100241.03;5076140;28;20211;-67
2023/12/04 10:36:54;;;;;;;6.43;1.20;;;;;;;8.02;88.83;100239.28;5077132;28;20200;-67
2023/12/04 10:39:21;;;;;;;3.57;1.20;;;;;;;8.00;88.34;100233.34;5078931;28;20672;-67
2023/12/04 10:42:04;;;;;;;1.37;1.27;;;;;;;8.03;89.31;100229.91;5074626;28;20645;-67
2023/12/04 10:44:31;;;;;;;0.90;0.90;;;;;;;7.96;89.71;100228.25;5074734;28;20615;-67
2023/12/04 10:47:01;;;;;;;1.37;1.17;;;;;;;7.93;89.94;100229.97;5074958;28;20262;-67
2023/12/04 10:49:28;;;;;;;1.03;0.97;;;;;;;7.98;89.81;100237.59;5075829;28;20591;-67
2023/12/04 10:51:58;;;;;;;0.70;0.70;;;;;;;7.89;89.75;100207.03;5075897;28;20214;-67
2023/12/04 10:54:24;;;;;;;1.40;1.07;;;;;;;8.08;90.37;100228.19;5077272;28;20207;-67
2023/12/04 10:56:53;;;;;;;1.83;1.73;;;;;;;8.06;90.10;100235.00;5072187;28;20222;-66
2023/12/04 10:59:26;;;;;;;1.50;1.20;;;;;;;8.06;90.56;100230.75;5075912;28;20212;-66
2023/12/04 11:01:55;;;;;;;0.80;0.80;;;;;;;8.14;90.55;100234.06;5074582;28;20287;-66
2023/12/04 11:04:26;;;;;;;1.20;1.10;;;;;;;8.19;90.23;100232.34;5071680;28;20218;-67
2023/12/04 11:06:55;;;;;;;2.63;1.10;;;;;;;8.20;89.86;100218.75;5073684;28;20200;-66
2023/12/04 11:09:26;;;;;;;1.10;1.10;;;;;;;8.30;89.07;100230.59;5075330;28;20200;-66
2023/12/04 11:11:58;;;;;;;1.17;1.17;;;;;;;8.33;88.58;100225.47;5073819;28;20283;-66
2023/12/04 11:14:31;;;;;;;0.97;0.97;;;;;;;8.37;89.75;100222.03;5075512;28;20294;-66
2023/12/04 11:17:05;;;;;;;1.43;1.43;;;;;;;8.39;89.37;100233.09;5075549;28;20223;-66
2023/12/04 11:19:41;;;;;;;1.03;1.03;;;;;;;8.39;89.51;100227.97;5069212;28;20261;-66
2023/12/04 11:22:08;;;;;;;0.90;0.90;;;;;;;8.25;88.98;100205.91;5075147;28;20207;-66
2023/12/04 11:24:37;;;;;;;2.10;1.37;;;;;;;8.37;88.92;100231.38;5075413;28;20265;-66
2023/12/04 11:27:05;;;;;;;1.20;1.20;;;;;;;8.37;89.14;100241.59;5074771;28;20711;-66
2023/12/04 11:29:34;;;;;;;3.17;1.00;;;;;;;8.32;88.16;100228.88;5076740;28;20291;-66
2023/12/04 11:32:00;;;;;;;0.80;0.80;;;;;;;8.26;87.86;100228.91;5074824;28;20200;-66